createdAt,value
2023-04-19T00:00:58.152Z,9.1535
2023-04-19T00:01:59.624Z,9.1000
2023-04-19T00:03:01.332Z,9.1141
2023-04-19T00:04:03.060Z,9.0473
2023-04-19T00:05:05.351Z,9.0962
2023-04-19T00:06:07.097Z,9.0846
2023-04-19T00:07:08.478Z,9.0375
2023-04-19T00:08:09.938Z,9.0657
2023-04-19T00:09:11.304Z,9.1169
2023-04-19T00:10:12.701Z,9.1495
2023-04-19T00:11:14.092Z,9.1641
2023-04-19T00:12:15.476Z,9.2084
2023-04-19T00:13:16.875Z,9.2258
2023-04-19T00:14:18.389Z,9.1705
2023-04-19T00:15:19.918Z,9.0658
2023-04-19T00:16:21.389Z,9.0268
2023-04-19T00:17:22.842Z,9.0248
2023-04-19T00:18:24.329Z,8.9992
2023-04-19T00:19:25.749Z,9.0060
2023-04-19T00:20:27.408Z,9.0706
2023-04-19T00:21:29.080Z,9.0369
2023-04-19T00:22:30.526Z,9.0948
2023-04-19T00:23:31.997Z,9.1611
2023-04-19T00:24:33.436Z,9.0658
2023-04-19T00:25:34.890Z,9.0455
2023-04-19T00:26:36.282Z,8.9893
2023-04-19T00:27:37.638Z,8.9829
2023-04-19T00:28:39.034Z,8.9848
2023-04-19T00:29:40.422Z,9.0528
2023-04-19T00:30:41.855Z,9.2027
2023-04-19T00:31:43.255Z,9.2079
2023-04-19T00:32:44.674Z,9.0981
2023-04-19T00:33:46.027Z,9.0661
2023-04-19T00:34:47.414Z,8.9792
2023-04-19T00:35:48.753Z,9.0176
2023-04-19T00:36:50.144Z,8.9908
2023-04-19T00:37:51.548Z,8.9633
2023-04-19T00:38:52.959Z,8.9690
2023-04-19T00:39:54.344Z,8.9361
2023-04-19T00:40:55.730Z,8.9673
2023-04-19T00:41:57.072Z,8.9881
2023-04-19T00:42:58.478Z,9.0154
2023-04-19T00:43:59.841Z,9.0610
2023-04-19T00:45:01.409Z,9.0041
2023-04-19T00:46:02.838Z,9.0370
2023-04-19T00:47:04.226Z,9.0444
2023-04-19T00:48:05.865Z,9.1414
2023-04-19T00:49:07.213Z,9.0776
2023-04-19T00:50:08.610Z,9.1108
2023-04-19T00:51:09.983Z,9.0780
2023-04-19T00:52:11.400Z,9.1393
2023-04-19T00:53:12.801Z,9.1754
2023-04-19T00:54:14.443Z,9.1774
2023-04-19T00:55:16.298Z,9.0664
2023-04-19T00:56:17.697Z,9.0444
2023-04-19T00:57:19.060Z,9.0933
2023-04-19T00:58:20.412Z,9.0283
2023-04-19T00:59:21.756Z,8.9940
2023-04-19T01:00:23.145Z,8.9961
2023-04-19T01:01:24.510Z,9.0011
2023-04-19T01:02:25.930Z,8.9859
2023-04-19T01:03:27.889Z,8.9696
2023-04-19T01:04:29.734Z,8.9401
2023-04-19T01:05:31.153Z,8.9701
2023-04-19T01:06:32.508Z,8.9877
2023-04-19T01:07:33.944Z,9.1059
2023-04-19T01:08:35.309Z,9.0420
2023-04-19T01:09:36.708Z,9.0606
2023-04-19T01:10:38.045Z,9.0091
2023-04-19T01:11:40.782Z,8.9920
2023-04-19T01:12:41.436Z,8.9437
2023-04-19T01:13:42.803Z,8.9211
2023-04-19T01:14:44.202Z,8.9117
2023-04-19T01:15:45.620Z,8.9705
2023-04-19T01:16:46.995Z,8.9749
2023-04-19T01:17:48.399Z,8.9026
2023-04-19T01:18:49.808Z,8.8968
2023-04-19T01:19:51.202Z,8.8857
2023-04-19T01:20:52.589Z,8.9048
2023-04-19T01:21:54.038Z,8.9473
2023-04-19T01:22:55.393Z,8.9004
2023-04-19T01:23:56.973Z,8.8755
2023-04-19T01:24:58.365Z,8.9132
2023-04-19T01:25:59.885Z,8.8954
2023-04-19T01:27:01.317Z,8.8939
2023-04-19T01:28:02.814Z,8.9618
2023-04-19T01:29:04.230Z,8.9388
2023-04-19T01:30:05.573Z,8.9279
2023-04-19T01:31:06.960Z,8.8869
2023-04-19T01:32:08.277Z,8.9114
2023-04-19T01:33:09.618Z,8.9028
2023-04-19T01:34:10.983Z,8.9286
2023-04-19T01:35:12.328Z,8.9236
2023-04-19T01:36:13.673Z,8.9660
2023-04-19T01:37:15.010Z,8.9324
2023-04-19T01:38:16.497Z,8.8754
2023-04-19T01:39:18.870Z,8.8777
2023-04-19T01:40:20.301Z,8.9336
2023-04-19T01:41:21.643Z,8.9059
2023-04-19T01:42:23.101Z,8.8748
2023-04-19T01:43:24.522Z,8.8459
2023-04-19T01:44:25.913Z,8.8394
2023-04-19T01:45:27.315Z,8.9125
2023-04-19T01:46:28.888Z,8.8782
2023-04-19T01:47:30.308Z,8.8846
2023-04-19T01:48:31.758Z,8.8654
2023-04-19T01:49:33.146Z,8.8862
2023-04-19T01:50:34.591Z,8.8783
2023-04-19T01:51:36.013Z,8.8543
2023-04-19T01:52:37.485Z,8.8149
2023-04-19T01:53:38.920Z,8.8357
2023-04-19T01:54:40.287Z,8.8538
2023-04-19T01:55:41.742Z,8.8796
2023-04-19T01:56:43.209Z,8.8168
2023-04-19T01:57:44.609Z,8.9192
2023-04-19T01:58:46.057Z,8.8161
2023-04-19T01:59:47.430Z,8.7890
2023-04-19T02:00:48.919Z,8.7863
2023-04-19T02:01:50.348Z,8.8341
2023-04-19T02:02:51.989Z,8.7822
2023-04-19T02:03:53.598Z,8.8049
2023-04-19T02:04:55.526Z,8.8303
2023-04-19T02:05:56.963Z,8.8088
2023-04-19T02:06:58.431Z,8.8070
2023-04-19T02:07:59.876Z,8.8000
2023-04-19T02:09:01.258Z,8.8115
2023-04-19T02:10:02.773Z,8.7917
2023-04-19T02:11:04.221Z,8.8103
2023-04-19T02:12:05.623Z,8.8178
2023-04-19T02:13:07.139Z,8.8586
2023-04-19T02:14:08.542Z,8.8284
2023-04-19T02:15:09.969Z,8.8489
2023-04-19T02:16:11.550Z,8.8299
2023-04-19T02:17:13.037Z,8.8881
2023-04-19T02:18:14.423Z,8.8616
2023-04-19T02:19:15.875Z,8.8020
2023-04-19T02:20:17.299Z,8.8226
2023-04-19T02:21:18.724Z,8.8179
2023-04-19T02:22:20.147Z,8.8972
2023-04-19T02:23:21.608Z,8.8545
2023-04-19T02:24:23.014Z,8.8875
2023-04-19T02:25:24.467Z,8.8730
2023-04-19T02:26:26.030Z,8.8519
2023-04-19T02:27:27.489Z,8.8326
2023-04-19T02:28:28.888Z,8.8651
2023-04-19T02:29:30.382Z,8.9125
2023-04-19T02:30:31.858Z,8.9273
2023-04-19T02:31:33.300Z,8.8611
2023-04-19T02:32:34.790Z,8.8646
2023-04-19T02:33:36.127Z,8.8063
2023-04-19T02:34:37.599Z,8.8396
2023-04-19T02:35:38.966Z,8.8265
2023-04-19T02:36:40.347Z,8.8309
2023-04-19T02:37:41.829Z,8.8368
2023-04-19T02:38:43.190Z,8.8264
2023-04-19T02:39:44.595Z,8.8267
2023-04-19T02:40:46.035Z,8.7959
2023-04-19T02:41:47.558Z,8.8936
2023-04-19T02:42:48.963Z,8.9418
2023-04-19T02:43:50.411Z,8.9621
2023-04-19T02:44:51.995Z,8.9125
2023-04-19T02:45:53.476Z,8.9218
2023-04-19T02:46:54.893Z,8.9430
2023-04-19T02:47:56.369Z,8.8773
2023-04-19T02:48:57.939Z,8.8624
2023-04-19T02:49:59.328Z,8.8674
2023-04-19T02:51:00.773Z,8.8357
2023-04-19T02:52:02.241Z,8.8363
2023-04-19T02:53:03.785Z,8.8123
2023-04-19T02:54:05.273Z,8.7946
2023-04-19T02:55:06.659Z,8.8387
2023-04-19T02:56:08.073Z,8.9022
2023-04-19T02:57:09.526Z,8.9113
2023-04-19T02:58:10.921Z,8.8745
2023-04-19T02:59:12.370Z,8.8916
2023-04-19T03:00:13.861Z,8.8846
2023-04-19T03:01:15.643Z,8.8966
2023-04-19T03:02:17.118Z,8.8522
2023-04-19T03:03:18.593Z,8.8139
2023-04-19T03:04:19.998Z,8.8272
2023-04-19T03:05:21.445Z,8.8495
2023-04-19T03:06:22.858Z,8.8111
2023-04-19T03:07:24.378Z,8.8396
2023-04-19T03:08:25.799Z,8.8148
2023-04-19T03:09:27.227Z,8.7986
2023-04-19T03:10:28.685Z,8.8161
2023-04-19T03:11:30.091Z,8.8404
2023-04-19T03:12:31.473Z,8.8538
2023-04-19T03:13:32.968Z,8.8920
2023-04-19T03:14:34.362Z,8.8179
2023-04-19T03:15:35.815Z,8.7739
2023-04-19T03:16:37.252Z,8.7711
2023-04-19T03:17:38.697Z,8.7611
2023-04-19T03:18:40.131Z,8.7904
2023-04-19T03:19:41.609Z,8.7521
2023-04-19T03:20:43.058Z,8.7742
2023-04-19T03:21:44.519Z,8.7574
2023-04-19T03:22:45.982Z,8.7466
2023-04-19T03:23:47.380Z,8.7283
2023-04-19T03:24:48.787Z,8.7654
2023-04-19T03:25:50.250Z,8.7497
2023-04-19T03:26:51.725Z,8.7443
2023-04-19T03:27:53.155Z,8.7250
2023-04-19T03:28:54.660Z,8.7504
2023-04-19T03:29:56.179Z,8.7673
2023-04-19T03:30:57.676Z,8.7673
2023-04-19T03:31:59.113Z,8.7522
2023-04-19T03:33:00.520Z,8.7685
2023-04-19T03:34:01.940Z,8.7449
2023-04-19T03:35:03.348Z,8.8214
2023-04-19T03:36:04.797Z,8.7383
2023-04-19T03:37:06.190Z,8.7625
2023-04-19T03:38:07.632Z,8.7552
2023-04-19T03:39:09.082Z,8.7601
2023-04-19T03:40:10.503Z,8.7737
2023-04-19T03:41:11.949Z,8.7308
2023-04-19T03:42:13.420Z,8.7711
2023-04-19T03:43:14.839Z,8.7880
2023-04-19T03:44:16.432Z,8.8120
2023-04-19T03:45:18.194Z,8.8738
2023-04-19T03:46:19.649Z,8.8021
2023-04-19T03:47:21.253Z,8.8212
2023-04-19T03:48:22.837Z,8.7920
2023-04-19T03:49:24.294Z,8.7683
2023-04-19T03:50:25.737Z,8.7545
2023-04-19T03:51:27.158Z,8.7357
2023-04-19T03:52:28.567Z,8.7751
2023-04-19T03:53:29.970Z,8.7746
2023-04-19T03:54:31.375Z,8.7332
2023-04-19T03:55:32.841Z,8.7499
2023-04-19T03:56:34.438Z,8.7428
2023-04-19T03:57:35.863Z,8.7332
2023-04-19T03:58:37.381Z,8.7428
2023-04-19T03:59:38.800Z,8.7517
2023-04-19T04:00:40.258Z,8.7714
2023-04-19T04:01:41.895Z,8.7802
2023-04-19T04:02:43.837Z,8.7752
2023-04-19T04:03:45.634Z,8.7744
2023-04-19T04:04:47.486Z,8.7775
2023-04-19T04:05:48.929Z,8.7766
2023-04-19T04:06:50.406Z,8.7559
2023-04-19T04:07:51.808Z,8.7731
2023-04-19T04:08:53.199Z,8.7666
2023-04-19T04:09:54.618Z,8.7714
2023-04-19T04:10:56.026Z,8.8140
2023-04-19T04:11:57.410Z,8.8129
2023-04-19T04:12:58.899Z,8.8247
2023-04-19T04:14:00.392Z,8.8214
2023-04-19T04:15:01.863Z,8.8130
2023-04-19T04:16:03.290Z,8.8021
2023-04-19T04:17:04.716Z,8.8298
2023-04-19T04:18:08.566Z,8.8353
2023-04-19T04:19:07.910Z,8.8287
2023-04-19T04:20:09.328Z,8.8256
2023-04-19T04:21:10.717Z,8.8298
2023-04-19T04:22:12.163Z,8.8198
2023-04-19T04:23:13.566Z,8.7985
2023-04-19T04:24:15.144Z,8.8413
2023-04-19T04:25:16.686Z,8.7906
2023-04-19T04:26:18.086Z,8.8429
2023-04-19T04:27:19.584Z,8.8766
2023-04-19T04:28:21.274Z,8.8425
2023-04-19T04:29:22.735Z,8.7978
2023-04-19T04:30:26.554Z,8.7526
2023-04-19T04:31:24.258Z,8.7589
2023-04-19T04:32:25.750Z,8.7942
2023-04-19T04:33:27.232Z,8.8153
2023-04-19T04:34:28.724Z,8.7952
2023-04-19T04:35:30.199Z,8.7928
2023-04-19T04:36:31.645Z,8.7779
2023-04-19T04:37:33.084Z,8.8229
2023-04-19T04:38:34.576Z,8.8100
2023-04-19T04:39:35.978Z,8.7881
2023-04-19T04:40:37.383Z,8.7747
2023-04-19T04:41:38.828Z,8.7959
2023-04-19T04:42:40.295Z,8.8537
2023-04-19T04:43:41.944Z,8.8820
2023-04-19T04:44:43.381Z,8.8129
2023-04-19T04:45:44.862Z,8.7973
2023-04-19T04:46:46.331Z,8.8436
2023-04-19T04:47:47.806Z,8.8637
2023-04-19T04:48:49.279Z,8.8774
2023-04-19T04:49:50.696Z,8.8694
2023-04-19T04:50:52.113Z,8.8694
2023-04-19T04:51:53.560Z,8.8276
2023-04-19T04:52:54.972Z,8.8013
2023-04-19T04:53:56.516Z,8.7889
2023-04-19T04:54:57.978Z,8.8639
2023-04-19T04:55:59.672Z,8.8334
2023-04-19T04:57:01.189Z,8.8575
2023-04-19T04:58:02.614Z,8.8777
2023-04-19T04:59:04.000Z,8.8622
2023-04-19T05:00:05.435Z,8.8411
2023-04-19T05:01:06.888Z,8.8809
2023-04-19T05:02:08.469Z,8.9131
2023-04-19T05:03:10.060Z,8.9297
2023-04-19T05:04:11.587Z,8.9608
2023-04-19T05:05:13.086Z,8.9137
2023-04-19T05:06:14.501Z,8.9415
2023-04-19T05:07:16.173Z,8.9768
2023-04-19T05:08:17.594Z,8.9676
2023-04-19T05:09:18.998Z,9.0048
2023-04-19T05:10:20.457Z,8.9942
2023-04-19T05:11:21.885Z,9.0109
2023-04-19T05:12:23.367Z,9.0006
2023-04-19T05:13:24.829Z,8.9365
2023-04-19T05:14:26.280Z,8.8991
2023-04-19T05:15:27.709Z,8.9513
2023-04-19T05:16:29.310Z,8.9707
2023-04-19T05:17:30.825Z,8.9478
2023-04-19T05:18:32.213Z,8.9302
2023-04-19T05:19:33.654Z,8.9396
2023-04-19T05:20:35.089Z,8.9417
2023-04-19T05:21:36.577Z,8.9564
2023-04-19T05:22:37.978Z,8.9388
2023-04-19T05:23:39.453Z,8.9153
2023-04-19T05:24:42.375Z,8.9528
2023-04-19T05:25:41.485Z,8.8518
2023-04-19T05:26:42.883Z,8.8662
2023-04-19T05:27:44.308Z,8.8767
2023-04-19T05:28:45.754Z,8.8961
2023-04-19T05:29:47.175Z,8.9660
2023-04-19T05:30:48.660Z,8.9560
2023-04-19T05:31:50.101Z,9.0144
2023-04-19T05:32:51.554Z,9.0314
2023-04-19T05:33:53.047Z,8.9786
2023-04-19T05:34:54.529Z,8.9843
2023-04-19T05:35:55.947Z,9.0014
2023-04-19T05:36:57.397Z,9.0404
2023-04-19T05:37:58.821Z,9.0275
2023-04-19T05:39:00.220Z,9.0125
2023-04-19T05:40:01.667Z,9.0096
2023-04-19T05:41:03.048Z,8.9661
2023-04-19T05:42:04.462Z,9.0147
2023-04-19T05:43:05.870Z,8.9298
2023-04-19T05:44:07.281Z,8.9773
2023-04-19T05:45:08.679Z,8.9950
2023-04-19T05:46:10.165Z,9.0242
2023-04-19T05:47:11.596Z,9.0104
2023-04-19T05:48:12.987Z,9.0987
2023-04-19T05:49:14.450Z,9.1139
2023-04-19T05:50:15.845Z,9.1077
2023-04-19T05:51:17.284Z,9.1403
2023-04-19T05:52:18.686Z,9.1393
2023-04-19T05:53:20.097Z,9.1103
2023-04-19T05:54:21.505Z,9.1324
2023-04-19T05:55:23.009Z,9.1742
2023-04-19T05:56:24.440Z,9.1451
2023-04-19T05:57:25.825Z,9.0599
2023-04-19T05:58:27.254Z,9.0384
2023-04-19T05:59:28.683Z,9.0285
2023-04-19T06:00:30.083Z,9.0221
2023-04-19T06:01:31.514Z,8.9963
2023-04-19T06:02:33.133Z,8.9779
2023-04-19T06:03:34.953Z,8.9976
2023-04-19T06:04:37.375Z,9.0442
2023-04-19T06:05:39.378Z,9.0609
2023-04-19T06:06:40.801Z,9.0418
2023-04-19T06:07:47.246Z,8.9925
2023-04-19T06:08:44.282Z,9.0529
2023-04-19T06:09:45.693Z,9.0781
2023-04-19T06:10:54.510Z,9.1162
2023-04-19T06:11:51.201Z,9.1404
2023-04-19T06:12:50.518Z,9.2182
2023-04-19T06:13:51.970Z,9.2018
2023-04-19T06:14:53.399Z,9.1660
2023-04-19T06:15:54.919Z,9.2085
2023-04-19T06:16:56.304Z,9.1481
2023-04-19T06:17:59.776Z,9.1661
2023-04-19T06:18:58.881Z,9.1999
2023-04-19T06:20:00.365Z,9.1790
2023-04-19T06:21:01.775Z,9.1907
2023-04-19T06:22:03.194Z,9.1809
2023-04-19T06:23:04.614Z,9.2180
2023-04-19T06:24:06.076Z,9.2086
2023-04-19T06:25:07.521Z,9.2120
2023-04-19T06:26:09.047Z,9.2129
2023-04-19T06:27:10.479Z,9.1703
2023-04-19T06:28:11.882Z,9.1151
2023-04-19T06:29:13.277Z,9.1365
2023-04-19T06:30:14.706Z,9.1053
2023-04-19T06:31:16.099Z,9.1024
2023-04-19T06:32:17.580Z,9.1375
2023-04-19T06:33:18.995Z,9.1740
2023-04-19T06:34:20.412Z,9.1661
2023-04-19T06:35:21.811Z,9.1867
2023-04-19T06:36:23.239Z,9.1919
2023-04-19T06:37:24.691Z,9.2172
2023-04-19T06:38:26.130Z,9.1985
2023-04-19T06:39:27.548Z,9.2377
2023-04-19T06:40:29.036Z,9.1854
2023-04-19T06:41:30.530Z,9.1648
2023-04-19T06:42:31.982Z,9.2498
2023-04-19T06:43:33.398Z,9.2382
2023-04-19T06:44:34.943Z,9.1741
2023-04-19T06:45:36.456Z,9.2340
2023-04-19T06:46:37.894Z,9.2931
2023-04-19T06:47:39.366Z,9.3789
2023-04-19T06:48:40.803Z,9.3660
2023-04-19T06:49:42.369Z,9.3051
2023-04-19T06:50:43.835Z,9.3650
2023-04-19T06:51:45.278Z,9.2894
2023-04-19T06:52:46.751Z,9.3197
2023-04-19T06:53:48.202Z,9.3261
2023-04-19T06:54:49.816Z,9.2866
2023-04-19T06:55:51.261Z,9.3815
2023-04-19T06:56:52.727Z,9.4163
2023-04-19T06:57:54.229Z,9.3620
2023-04-19T06:58:55.680Z,9.3797
2023-04-19T06:59:57.154Z,9.3656
2023-04-19T07:00:58.674Z,9.2748
2023-04-19T07:02:00.213Z,9.2936
2023-04-19T07:03:01.869Z,9.2994
2023-04-19T07:04:03.874Z,9.4110
2023-04-19T07:05:06.093Z,9.3688
2023-04-19T07:06:07.519Z,9.4655
2023-04-19T07:07:08.942Z,9.4669
2023-04-19T07:08:10.394Z,9.4542
2023-04-19T07:09:11.836Z,9.3205
2023-04-19T07:10:13.318Z,9.3071
2023-04-19T07:11:14.756Z,9.2941
2023-04-19T07:12:16.266Z,9.2812
2023-04-19T07:13:17.718Z,9.2669
2023-04-19T07:14:19.334Z,9.2736
2023-04-19T07:15:20.797Z,9.3882
2023-04-19T07:16:22.464Z,9.3317
2023-04-19T07:17:24.010Z,9.3224
2023-04-19T07:18:25.565Z,9.3227
2023-04-19T07:19:27.059Z,9.3256
2023-04-19T07:20:28.720Z,9.3567
2023-04-19T07:21:30.248Z,9.4453
2023-04-19T07:22:31.774Z,9.4064
2023-04-19T07:23:33.243Z,9.5784
2023-04-19T07:24:34.663Z,9.6515
2023-04-19T07:25:36.125Z,9.6685
2023-04-19T07:26:37.630Z,9.7314
2023-04-19T07:27:39.043Z,9.6822
2023-04-19T07:28:40.509Z,9.6309
2023-04-19T07:29:41.989Z,9.5678
2023-04-19T07:30:43.450Z,9.5541
2023-04-19T07:31:44.947Z,9.4703
2023-04-19T07:32:46.555Z,9.4515
2023-04-19T07:33:48.094Z,9.4468
2023-04-19T07:34:49.561Z,9.5746
2023-04-19T07:35:51.221Z,9.7356
2023-04-19T07:36:52.714Z,9.6855
2023-04-19T07:37:57.264Z,9.6107
2023-04-19T07:38:58.901Z,9.6970
2023-04-19T07:40:01.238Z,9.5486
2023-04-19T07:41:02.751Z,9.4971
2023-04-19T07:42:04.259Z,9.4862
2023-04-19T07:43:05.796Z,9.6904
2023-04-19T07:44:07.356Z,9.7492
2023-04-19T07:45:08.809Z,9.6852
2023-04-19T07:46:10.299Z,9.6571
2023-04-19T07:47:11.758Z,9.6290
2023-04-19T07:48:13.251Z,9.7394
2023-04-19T07:49:14.713Z,9.7053
2023-04-19T07:50:16.297Z,9.6710
2023-04-19T07:51:17.831Z,9.6069
2023-04-19T07:52:19.272Z,9.6883
2023-04-19T07:53:20.721Z,9.6176
2023-04-19T07:54:22.137Z,9.7682
2023-04-19T07:55:23.648Z,9.6955
2023-04-19T07:56:25.091Z,9.6504
2023-04-19T07:57:26.618Z,9.5968
2023-04-19T07:58:28.090Z,9.7039
2023-04-19T07:59:29.602Z,9.8346
2023-04-19T08:00:31.023Z,9.6725
2023-04-19T08:01:32.840Z,9.6544
2023-04-19T08:02:34.787Z,9.6980
2023-04-19T08:03:36.481Z,9.7207
2023-04-19T08:04:38.548Z,9.7005
2023-04-19T08:05:40.417Z,9.6331
2023-04-19T08:06:41.975Z,9.6572
2023-04-19T08:07:43.478Z,9.6409
2023-04-19T08:08:44.930Z,9.6421
2023-04-19T08:09:46.476Z,9.7051
2023-04-19T08:10:47.932Z,9.7134
2023-04-19T08:11:49.447Z,9.7965
2023-04-19T08:14:04.558Z,9.8028
2023-04-19T08:15:02.661Z,9.9102
2023-04-19T08:17:22.050Z,9.9561
2023-04-19T08:18:01.119Z,9.8896
2023-04-19T08:19:02.608Z,9.9248
2023-04-19T08:20:04.100Z,10.0278
2023-04-19T08:21:05.538Z,9.9390
2023-04-19T08:22:07.014Z,9.8785
2023-04-19T08:23:20.363Z,9.8324
2023-04-19T08:24:10.483Z,9.8854
2023-04-19T08:25:11.900Z,10.0659
2023-04-19T08:26:13.378Z,9.9248
2023-04-19T08:27:14.881Z,10.0413
2023-04-19T08:28:16.354Z,9.9719
2023-04-19T08:29:17.945Z,10.0585
2023-04-19T08:30:19.595Z,10.2896
2023-04-19T08:31:21.056Z,10.2816
2023-04-19T08:32:22.552Z,10.2769
2023-04-19T08:33:24.040Z,10.3861
2023-04-19T08:34:25.469Z,10.2635
2023-04-19T08:35:26.908Z,10.2322
2023-04-19T08:36:37.104Z,10.2270
2023-04-19T08:37:30.451Z,10.2795
2023-04-19T08:38:31.975Z,10.2695
2023-04-19T08:39:34.262Z,10.2381
2023-04-19T08:40:33.545Z,10.2092
2023-04-19T08:41:34.999Z,10.2238
2023-04-19T08:42:37.249Z,10.2252
2023-04-19T08:43:40.486Z,10.3986
2023-04-19T08:44:53.795Z,10.3059
2023-04-19T08:45:43.007Z,10.3503
2023-04-19T08:46:44.421Z,10.3561
2023-04-19T08:47:58.665Z,10.3188
2023-04-19T08:48:47.942Z,10.3268
2023-04-19T08:49:56.300Z,10.4842
2023-04-19T08:51:04.446Z,10.3441
2023-04-19T08:51:53.494Z,10.3704
2023-04-19T08:52:59.053Z,10.3335
2023-04-19T08:53:56.975Z,10.3538
2023-04-19T08:54:58.471Z,10.2655
2023-04-19T08:56:10.023Z,10.3625
2023-04-19T08:57:01.958Z,10.4285
2023-04-19T08:58:04.197Z,10.3629
2023-04-19T08:59:19.253Z,10.4153
2023-04-19T09:00:06.619Z,10.4626
2023-04-19T09:01:08.301Z,10.4279
2023-04-19T09:02:08.733Z,10.4283
2023-04-19T09:03:10.646Z,10.1657
2023-04-19T09:05:13.378Z,10.0979
2023-04-19T09:06:15.293Z,10.0496
2023-04-19T09:07:16.842Z,10.0327
2023-04-19T09:08:18.297Z,10.0717
2023-04-19T09:10:21.576Z,10.1215
2023-04-19T09:11:23.085Z,10.2085
2023-04-19T09:12:24.537Z,10.2084
2023-04-19T09:13:26.032Z,10.2261
2023-04-19T09:14:27.467Z,10.2203
2023-04-19T09:15:28.940Z,10.2377
2023-04-19T09:16:30.414Z,10.3017
2023-04-19T09:17:31.888Z,10.4840
2023-04-19T09:18:35.933Z,10.4676
2023-04-19T09:19:35.372Z,10.8120
2023-04-19T09:20:36.840Z,10.9098
2023-04-19T09:21:38.270Z,11.0308
2023-04-19T09:22:39.684Z,10.9074
2023-04-19T09:23:41.148Z,10.7862
2023-04-19T09:26:06.280Z,10.8015
2023-04-19T09:26:46.233Z,10.8158
2023-04-19T09:27:47.669Z,10.7851
2023-04-19T09:28:49.081Z,10.7389
2023-04-19T09:29:50.496Z,10.7456
2023-04-19T09:31:00.668Z,10.8225
2023-04-19T09:31:54.092Z,10.5979
2023-04-19T09:32:55.568Z,10.5250
2023-04-19T09:33:56.983Z,10.5553
2023-04-19T09:34:58.454Z,10.6226
2023-04-19T09:35:59.902Z,10.7133
2023-04-19T09:37:12.177Z,10.8185
2023-04-19T09:38:06.721Z,10.6732
2023-04-19T09:39:05.934Z,10.7502
2023-04-19T09:40:07.381Z,10.7583
2023-04-19T09:41:08.800Z,10.8392
2023-04-19T09:42:10.260Z,11.1440
2023-04-19T09:44:50.198Z,11.0806
2023-04-19T09:46:17.344Z,11.1826
2023-04-19T09:47:18.716Z,10.9317
2023-04-19T09:48:20.159Z,10.9628
2023-04-19T09:49:33.547Z,10.9404
2023-04-19T09:50:27.288Z,10.8272
2023-04-19T09:51:23.753Z,10.9398
2023-04-19T09:52:25.150Z,10.9023
2023-04-19T09:53:26.528Z,10.8721
2023-04-19T09:54:27.941Z,10.7800
2023-04-19T09:55:31.721Z,10.8323
2023-04-19T09:56:31.350Z,10.9258
2023-04-19T09:57:32.766Z,10.9326
2023-04-19T09:59:35.919Z,10.7601
2023-04-19T10:00:47.996Z,10.9266
2023-04-19T10:01:39.368Z,10.8246
2023-04-19T10:02:40.949Z,10.8838
2023-04-19T10:03:42.619Z,11.1108
2023-04-19T10:05:46.317Z,11.0154
2023-04-19T10:07:07.403Z,11.0659
2023-04-19T10:07:49.874Z,11.0691
2023-04-19T10:08:51.621Z,10.9599
2023-04-19T10:09:55.023Z,10.8675
2023-04-19T10:10:55.236Z,10.9520
2023-04-19T10:12:03.764Z,11.0329
2023-04-19T10:13:15.891Z,11.2201
2023-04-19T10:14:00.900Z,11.1666
2023-04-19T10:15:02.313Z,11.0270
2023-04-19T10:16:15.502Z,11.1192
2023-04-19T10:17:05.794Z,11.1393
2023-04-19T10:18:07.413Z,11.1637
2023-04-19T10:19:10.054Z,11.0810
2023-04-19T10:20:09.224Z,10.8635
2023-04-19T10:21:10.608Z,10.9919
2023-04-19T10:22:11.990Z,11.0377
2023-04-19T10:23:13.487Z,11.1178
2023-04-19T10:24:14.893Z,11.0737
2023-04-19T10:25:16.356Z,11.1701
2023-04-19T10:26:17.765Z,11.2262
2023-04-19T10:27:19.216Z,11.2670
2023-04-19T10:28:20.647Z,11.2674
2023-04-19T10:29:22.074Z,11.3251
2023-04-19T10:30:23.517Z,11.2065
2023-04-19T10:31:24.912Z,11.4351
2023-04-19T10:32:26.380Z,11.3913
2023-04-19T10:33:27.898Z,11.5568
2023-04-19T10:34:29.350Z,11.4034
2023-04-19T10:35:30.753Z,11.6683
2023-04-19T10:36:32.189Z,11.3478
2023-04-19T10:37:33.793Z,11.1658
2023-04-19T10:38:35.329Z,11.1931
2023-04-19T10:39:36.794Z,11.4319
2023-04-19T10:40:38.178Z,11.5368
2023-04-19T10:41:39.654Z,11.5024
2023-04-19T10:42:41.037Z,11.2824
2023-04-19T10:43:42.477Z,11.1505
2023-04-19T10:44:43.866Z,11.0774
2023-04-19T10:45:45.313Z,11.1232
2023-04-19T10:46:46.707Z,11.0906
2023-04-19T10:47:48.195Z,11.1110
2023-04-19T10:48:49.701Z,10.8089
2023-04-19T10:49:51.181Z,10.7969
2023-04-19T10:50:52.634Z,10.9300
2023-04-19T10:51:54.059Z,10.9111
2023-04-19T10:52:55.484Z,10.9843
2023-04-19T10:53:56.940Z,10.9688
2023-04-19T10:54:58.374Z,10.9736
2023-04-19T10:55:59.779Z,11.0865
2023-04-19T10:57:01.201Z,11.0244
2023-04-19T10:58:02.602Z,11.0501
2023-04-19T10:59:04.036Z,11.0713
2023-04-19T11:00:05.471Z,11.1249
2023-04-19T11:01:06.889Z,11.0709
2023-04-19T11:02:08.395Z,11.1516
2023-04-19T11:03:10.086Z,11.2163
2023-04-19T11:04:11.902Z,11.2803
2023-04-19T11:05:13.603Z,11.1713
2023-04-19T11:06:15.014Z,11.2000
2023-04-19T11:07:16.386Z,11.2051
2023-04-19T11:08:17.799Z,11.4371
2023-04-19T11:09:19.260Z,11.3353
2023-04-19T11:10:20.719Z,11.3607
2023-04-19T11:11:22.143Z,11.4283
2023-04-19T11:12:23.597Z,11.4311
2023-04-19T11:13:25.039Z,11.4845
2023-04-19T11:14:26.493Z,11.5137
2023-04-19T11:15:27.969Z,11.5086
2023-04-19T11:16:42.434Z,11.4713
2023-04-19T11:17:31.598Z,11.4847
2023-04-19T11:18:33.301Z,11.4996
2023-04-19T11:19:34.683Z,11.4534
2023-04-19T11:20:36.157Z,11.4646
2023-04-19T11:21:37.554Z,11.5139
2023-04-19T11:22:39.052Z,11.3377
2023-04-19T11:23:40.455Z,11.4306
2023-04-19T11:24:41.873Z,11.6801
2023-04-19T11:25:43.296Z,11.9277
2023-04-19T11:26:44.752Z,11.8468
2023-04-19T11:27:46.230Z,11.8816
2023-04-19T11:28:47.680Z,11.8764
2023-04-19T11:29:49.135Z,11.7734
2023-04-19T11:30:50.622Z,11.8702
2023-04-19T11:31:52.137Z,11.8383
2023-04-19T11:32:53.666Z,11.9318
2023-04-19T11:33:55.439Z,11.6811
2023-04-19T11:34:57.069Z,11.6807
2023-04-19T11:35:58.509Z,11.7878
2023-04-19T11:36:59.938Z,11.8679
2023-04-19T11:38:01.428Z,11.8382
2023-04-19T11:39:02.898Z,11.7791
2023-04-19T11:40:05.104Z,11.6646
2023-04-19T11:41:06.908Z,11.4802
2023-04-19T11:42:08.340Z,11.3352
2023-04-19T11:43:09.710Z,11.3513
2023-04-19T11:44:11.159Z,11.4214
2023-04-19T11:45:25.897Z,11.4200
2023-04-19T11:46:14.737Z,11.3820
2023-04-19T11:47:16.251Z,11.2302
2023-04-19T11:48:17.888Z,11.2386
2023-04-19T11:49:19.348Z,11.3115
2023-04-19T11:50:20.831Z,11.4376
2023-04-19T11:51:22.460Z,11.3932
2023-04-19T11:52:23.913Z,11.5931
2023-04-19T11:53:25.371Z,11.4560
2023-04-19T11:54:26.854Z,11.6250
2023-04-19T11:55:28.272Z,11.6664
2023-04-19T11:56:29.732Z,11.7830
2023-04-19T11:57:31.183Z,11.7425
2023-04-19T11:58:32.617Z,11.7344
2023-04-19T11:59:34.064Z,11.9041
2023-04-19T12:00:35.524Z,11.8278
2023-04-19T12:01:36.918Z,11.8121
2023-04-19T12:02:38.610Z,11.7005
2023-04-19T12:03:40.335Z,11.9462
2023-04-19T12:04:42.205Z,11.8925
2023-04-19T12:05:44.146Z,11.9221
2023-04-19T12:06:45.666Z,11.9286
2023-04-19T12:07:47.124Z,12.1010
2023-04-19T12:08:48.575Z,12.2059
2023-04-19T12:09:50.032Z,12.2407
2023-04-19T12:10:51.519Z,12.3713
2023-04-19T12:11:52.940Z,12.2356
2023-04-19T12:12:54.383Z,12.1479
2023-04-19T12:13:55.813Z,11.6951
2023-04-19T12:14:57.289Z,11.5626
2023-04-19T12:15:58.758Z,11.7672
2023-04-19T12:17:00.322Z,11.8205
2023-04-19T12:18:01.876Z,11.9291
2023-04-19T12:19:03.476Z,11.6769
2023-04-19T12:20:05.027Z,11.7981
2023-04-19T12:21:06.465Z,11.7822
2023-04-19T12:22:07.921Z,11.6242
2023-04-19T12:23:09.401Z,11.4628
2023-04-19T12:24:10.918Z,11.4509
2023-04-19T12:25:12.404Z,11.4736
2023-04-19T12:26:13.839Z,11.5813
2023-04-19T12:27:15.359Z,11.5688
2023-04-19T12:28:16.836Z,11.5785
2023-04-19T12:29:18.385Z,11.3947
2023-04-19T12:30:19.836Z,11.4614
2023-04-19T12:31:21.250Z,11.5583
2023-04-19T12:32:22.733Z,11.4365
2023-04-19T12:33:24.240Z,11.4276
2023-04-19T12:34:25.687Z,11.5861
2023-04-19T12:35:27.174Z,11.5181
2023-04-19T12:36:28.688Z,11.3450
2023-04-19T12:37:30.153Z,11.3182
2023-04-19T12:38:31.615Z,11.3590
2023-04-19T12:39:33.129Z,11.3064
2023-04-19T12:40:34.789Z,11.3841
2023-04-19T12:41:36.278Z,11.3756
2023-04-19T12:42:37.730Z,11.2528
2023-04-19T12:43:39.199Z,11.1194
2023-04-19T12:44:40.697Z,11.1454
2023-04-19T12:45:42.256Z,11.1101
2023-04-19T12:46:43.785Z,11.0257
2023-04-19T12:47:45.290Z,11.1042
2023-04-19T12:48:46.814Z,11.0632